sensor_id;sensor_type;location;lat;lon;timestamp;pressure;altitude;pressure_sealevel;temperature;humidity
51617;BME280;37697;52.588;13.394;2023-12-20T00:03:25;100416.91;;;5.64;100.00
51617;BME280;37697;52.588;13.394;2023-12-20T00:08:51;100416.59;;;5.62;100.00
51617;BME280;37697;52.588;13.394;2023-12-20T00:14:17;100410.87;;;5.60;100.00
51617;BME280;37697;52.588;13.394;2023-12-20T00:19:43;100405.84;;;5.59;100.00
51617;BME280;37697;52.588;13.394;2023-12-20T00:25:09;100393.60;;;5.59;100.00
51617;BME280;37697;52.588;13.394;2023-12-20T00:30:35;100390.06;;;5.57;100.00
51617;BME280;37697;52.588;13.394;2023-12-20T00:36:00;100383.02;;;5.56;100.00
51617;BME280;37697;52.588;13.394;2023-12-20T00:41:26;100380.93;;;5.56;100.00
51617;BME280;37697;52.588;13.394;2023-12-20T00:46:52;100376.34;;;5.57;100.00
51617;BME280;37697;52.588;13.394;2023-12-20T00:52:18;100375.85;;;5.55;100.00
51617;BME280;37697;52.588;13.394;2023-12-20T00:57:43;100384.23;;;5.53;100.00
51617;BME280;37697;52.588;13.394;2023-12-20T01:03:09;100381.05;;;5.54;100.00
51617;BME280;37697;52.588;13.394;2023-12-20T01:08:35;100383.35;;;5.54;100.00
51617;BME280;37697;52.588;13.394;2023-12-20T01:14:00;100385.85;;;5.55;100.00
51617;BME280;37697;52.588;13.394;2023-12-20T01:19:27;100400.39;;;5.55;100.00
51617;BME280;37697;52.588;13.394;2023-12-20T01:24:52;100388.92;;;5.54;100.00
51617;BME280;37697;52.588;13.394;2023-12-20T01:30:18;100384.22;;;5.54;100.00
51617;BME280;37697;52.588;13.394;2023-12-20T01:35:44;100385.10;;;5.54;100.00
51617;BME280;37697;52.588;13.394;2023-12-20T01:41:10;100382.90;;;5.55;100.00
51617;BME280;37697;52.588;13.394;2023-12-20T01:46:36;100387.66;;;5.54;100.00
51617;BME280;37697;52.588;13.394;2023-12-20T01:52:02;100378.49;;;5.54;100.00
51617;BME280;37697;52.588;13.394;2023-12-20T01:57:28;100373.02;;;5.53;100.00
51617;BME280;37697;52.588;13.394;2023-12-20T02:02:54;100373.35;;;5.54;100.00
51617;BME280;37697;52.588;13.394;2023-12-20T02:08:20;100374.00;;;5.53;100.00
51617;BME280;37697;52.588;13.394;2023-12-20T02:13:46;100370.36;;;5.50;100.00
51617;BME280;37697;52.588;13.394;2023-12-20T02:19:14;100362.69;;;5.50;100.00
51617;BME280;37697;52.588;13.394;2023-12-20T02:24:41;100364.73;;;5.48;100.00
51617;BME280;37697;52.588;13.394;2023-12-20T02:30:09;100357.25;;;5.46;100.00
51617;BME280;37697;52.588;13.394;2023-12-20T02:35:35;100366.05;;;5.44;100.00
51617;BME280;37697;52.588;13.394;2023-12-20T02:41:01;100370.83;;;5.40;100.00
51617;BME280;37697;52.588;13.394;2023-12-20T02:46:27;100367.13;;;5.36;100.00
51617;BME280;37697;52.588;13.394;2023-12-20T02:51:52;100366.53;;;5.32;100.00
51617;BME280;37697;52.588;13.394;2023-12-20T02:57:18;100370.35;;;5.30;100.00
51617;BME280;37697;52.588;13.394;2023-12-20T03:02:44;100370.91;;;5.28;100.00
51617;BME280;37697;52.588;13.394;2023-12-20T03:08:10;100373.15;;;5.28;100.00
51617;BME280;37697;52.588;13.394;2023-12-20T03:13:37;100373.10;;;5.27;100.00
51617;BME280;37697;52.588;13.394;2023-12-20T03:19:03;100374.24;;;5.24;100.00
51617;BME280;37697;52.588;13.394;2023-12-20T03:24:28;100371.36;;;5.18;100.00
51617;BME280;37697;52.588;13.394;2023-12-20T03:29:54;100387.54;;;5.13;100.00
51617;BME280;37697;52.588;13.394;2023-12-20T03:35:20;100378.42;;;5.07;100.00
51617;BME280;37697;52.588;13.394;2023-12-20T03:40:46;100379.42;;;5.01;100.00
51617;BME280;37697;52.588;13.394;2023-12-20T03:46:12;100379.48;;;4.97;100.00
51617;BME280;37697;52.588;13.394;2023-12-20T03:51:37;100367.58;;;4.92;100.00
51617;BME280;37697;52.588;13.394;2023-12-20T03:57:04;100365.02;;;4.92;100.00
51617;BME280;37697;52.588;13.394;2023-12-20T04:02:29;100368.63;;;4.90;100.00
51617;BME280;37697;52.588;13.394;2023-12-20T04:07:55;100362.34;;;4.88;100.00
51617;BME280;37697;52.588;13.394;2023-12-20T04:13:21;100348.81;;;4.87;100.00
51617;BME280;37697;52.588;13.394;2023-12-20T04:18:47;100345.27;;;4.86;100.00
51617;BME280;37697;52.588;13.394;2023-12-20T04:24:12;100349.68;;;4.87;100.00
51617;BME280;37697;52.588;13.394;2023-12-20T04:29:38;100346.25;;;4.87;100.00
51617;BME280;37697;52.588;13.394;2023-12-20T04:35:05;100342.33;;;4.82;100.00
51617;BME280;37697;52.588;13.394;2023-12-20T04:40:31;100343.09;;;4.77;100.00
51617;BME280;37697;52.588;13.394;2023-12-20T04:45:57;100347.73;;;4.71;100.00
51617;BME280;37697;52.588;13.394;2023-12-20T04:51:22;100348.29;;;4.64;100.00
51617;BME280;37697;52.588;13.394;2023-12-20T04:56:49;100343.88;;;4.53;100.00
51617;BME280;37697;52.588;13.394;2023-12-20T05:02:14;100340.48;;;4.45;100.00
51617;BME280;37697;52.588;13.394;2023-12-20T05:07:40;100338.14;;;4.42;100.00
51617;BME280;37697;52.588;13.394;2023-12-20T05:13:06;100338.73;;;4.42;100.00
51617;BME280;37697;52.588;13.394;2023-12-20T05:18:47;100338.90;;;4.40;100.00
51617;BME280;37697;52.588;13.394;2023-12-20T05:24:12;100347.73;;;4.35;100.00
51617;BME280;37697;52.588;13.394;2023-12-20T05:29:38;100345.42;;;4.29;100.00
51617;BME280;37697;52.588;13.394;2023-12-20T05:35:05;100347.70;;;4.21;100.00
51617;BME280;37697;52.588;13.394;2023-12-20T05:40:31;100335.81;;;4.12;100.00
51617;BME280;37697;52.588;13.394;2023-12-20T05:45:57;100339.73;;;4.04;100.00
51617;BME280;37697;52.588;13.394;2023-12-20T05:51:23;100329.02;;;3.97;100.00
51617;BME280;37697;52.588;13.394;2023-12-20T05:56:48;100323.95;;;3.92;100.00
51617;BME280;37697;52.588;13.394;2023-12-20T06:02:14;100321.48;;;3.86;100.00
51617;BME280;37697;52.588;13.394;2023-12-20T06:07:40;100319.78;;;3.83;100.00
51617;BME280;37697;52.588;13.394;2023-12-20T06:12:57;100317.11;;;3.82;100.00
51617;BME280;37697;52.588;13.394;2023-12-20T06:18:22;100314.77;;;3.78;100.00
51617;BME280;37697;52.588;13.394;2023-12-20T06:23:48;100308.55;;;3.76;100.00
51617;BME280;37697;52.588;13.394;2023-12-20T06:29:14;100308.31;;;3.71;100.00
51617;BME280;37697;52.588;13.394;2023-12-20T06:34:40;100316.85;;;3.70;100.00
51617;BME280;37697;52.588;13.394;2023-12-20T06:40:08;100319.86;;;3.70;100.00
51617;BME280;37697;52.588;13.394;2023-12-20T06:45:35;100317.34;;;3.70;100.00
51617;BME280;37697;52.588;13.394;2023-12-20T06:51:02;100304.70;;;3.68;100.00
51617;BME280;37697;52.588;13.394;2023-12-20T06:56:28;100303.41;;;3.67;100.00
51617;BME280;37697;52.588;13.394;2023-12-20T07:01:53;100300.50;;;3.66;100.00
51617;BME280;37697;52.588;13.394;2023-12-20T07:07:20;100290.98;;;3.66;100.00
51617;BME280;37697;52.588;13.394;2023-12-20T07:12:46;100297.46;;;3.68;100.00
51617;BME280;37697;52.588;13.394;2023-12-20T07:18:03;100297.73;;;3.69;100.00
51617;BME280;37697;52.588;13.394;2023-12-20T07:23:28;100299.33;;;3.71;100.00
51617;BME280;37697;52.588;13.394;2023-12-20T07:28:54;100294.31;;;3.73;100.00
51617;BME280;37697;52.588;13.394;2023-12-20T07:34:20;100290.79;;;3.77;100.00
51617;BME280;37697;52.588;13.394;2023-12-20T07:39:46;100281.64;;;3.79;100.00
51617;BME280;37697;52.588;13.394;2023-12-20T07:45:12;100282.08;;;3.81;100.00
51617;BME280;37697;52.588;13.394;2023-12-20T07:50:38;100281.38;;;3.84;100.00
51617;BME280;37697;52.588;13.394;2023-12-20T07:56:14;100279.90;;;3.86;100.00
51617;BME280;37697;52.588;13.394;2023-12-20T08:01:40;100278.23;;;3.88;100.00
51617;BME280;37697;52.588;13.394;2023-12-20T08:07:06;100284.64;;;3.90;100.00
51617;BME280;37697;52.588;13.394;2023-12-20T08:12:32;100289.08;;;3.92;100.00
51617;BME280;37697;52.588;13.394;2023-12-20T08:17:58;100288.36;;;3.94;100.00
51617;BME280;37697;52.588;13.394;2023-12-20T08:23:24;100288.21;;;3.95;100.00
51617;BME280;37697;52.588;13.394;2023-12-20T08:28:50;100291.63;;;3.96;100.00
51617;BME280;37697;52.588;13.394;2023-12-20T08:34:16;100287.88;;;3.97;100.00
51617;BME280;37697;52.588;13.394;2023-12-20T08:39:43;100281.23;;;4.00;100.00
51617;BME280;37697;52.588;13.394;2023-12-20T08:45:10;100276.98;;;4.05;100.00
51617;BME280;37697;52.588;13.394;2023-12-20T08:50:36;100262.72;;;4.14;100.00
51617;BME280;37697;52.588;13.394;2023-12-20T08:56:02;100257.65;;;4.25;100.00
51617;BME280;37697;52.588;13.394;2023-12-20T09:01:27;100253.77;;;4.27;100.00
51617;BME280;37697;52.588;13.394;2023-12-20T09:06:53;100249.68;;;4.29;100.00
51617;BME280;37697;52.588;13.394;2023-12-20T09:12:20;100255.41;;;4.35;100.00
51617;BME280;37697;52.588;13.394;2023-12-20T09:17:46;100248.42;;;4.48;100.00
51617;BME280;37697;52.588;13.394;2023-12-20T09:23:12;100248.86;;;4.57;100.00
51617;BME280;37697;52.588;13.394;2023-12-20T09:28:38;100247.42;;;4.60;100.00
51617;BME280;37697;52.588;13.394;2023-12-20T09:34:04;100243.98;;;4.62;100.00
51617;BME280;37697;52.588;13.394;2023-12-20T09:39:30;100234.21;;;4.64;100.00
51617;BME280;37697;52.588;13.394;2023-12-20T09:44:56;100233.77;;;4.67;100.00
51617;BME280;37697;52.588;13.394;2023-12-20T09:50:27;100228.96;;;4.69;100.00
51617;BME280;37697;52.588;13.394;2023-12-20T09:55:59;100233.33;;;4.68;100.00
51617;BME280;37697;52.588;13.394;2023-12-20T10:01:25;100231.15;;;4.69;100.00
51617;BME280;37697;52.588;13.394;2023-12-20T10:06:51;100220.55;;;4.71;100.00
51617;BME280;37697;52.588;13.394;2023-12-20T10:12:17;100206.38;;;4.73;100.00
51617;BME280;37697;52.588;13.394;2023-12-20T10:17:43;100198.01;;;4.75;100.00
51617;BME280;37697;52.588;13.394;2023-12-20T10:23:09;100185.24;;;4.75;100.00
51617;BME280;37697;52.588;13.394;2023-12-20T10:28:35;100180.11;;;4.78;100.00
51617;BME280;37697;52.588;13.394;2023-12-20T10:34:02;100175.41;;;4.79;100.00
51617;BME280;37697;52.588;13.394;2023-12-20T10:39:28;100165.42;;;4.80;100.00
51617;BME280;37697;52.588;13.394;2023-12-20T10:44:54;100155.05;;;4.84;100.00
51617;BME280;37697;52.588;13.394;2023-12-20T10:50:20;100139.77;;;4.94;100.00
51617;BME280;37697;52.588;13.394;2023-12-20T10:55:47;100132.38;;;5.00;100.00
51617;BME280;37697;52.588;13.394;2023-12-20T11:01:16;100125.83;;;5.01;100.00
51617;BME280;37697;52.588;13.394;2023-12-20T11:06:47;100116.70;;;5.00;100.00
51617;BME280;37697;52.588;13.394;2023-12-20T11:12:18;100106.44;;;5.03;100.00
51617;BME280;37697;52.588;13.394;2023-12-20T11:17:40;100099.64;;;5.05;100.00
51617;BME280;37697;52.588;13.394;2023-12-20T11:22:54;100091.92;;;5.09;100.00
51617;BME280;37697;52.588;13.394;2023-12-20T11:28:24;100076.27;;;5.07;100.00
51617;BME280;37697;52.588;13.394;2023-12-20T11:33:50;100070.73;;;5.02;100.00
51617;BME280;37697;52.588;13.394;2023-12-20T11:39:22;100067.60;;;4.98;100.00
51617;BME280;37697;52.588;13.394;2023-12-20T11:44:43;100051.02;;;4.95;100.00
51617;BME280;37697;52.588;13.394;2023-12-20T11:50:10;100032.52;;;4.94;100.00
51617;BME280;37697;52.588;13.394;2023-12-20T11:55:36;100028.02;;;4.99;100.00
51617;BME280;37697;52.588;13.394;2023-12-20T12:01:02;100003.00;;;5.08;100.00
51617;BME280;37697;52.588;13.394;2023-12-20T12:06:28;99989.95;;;5.22;100.00
51617;BME280;37697;52.588;13.394;2023-12-20T12:11:54;99976.29;;;5.31;100.00
51617;BME280;37697;52.588;13.394;2023-12-20T12:17:16;99967.23;;;5.29;100.00
51617;BME280;37697;52.588;13.394;2023-12-20T12:22:42;99955.52;;;5.28;100.00
51617;BME280;37697;52.588;13.394;2023-12-20T12:28:09;99945.56;;;5.23;100.00
51617;BME280;37697;52.588;13.394;2023-12-20T12:33:35;99943.13;;;5.15;100.00
51617;BME280;37697;52.588;13.394;2023-12-20T12:39:03;99933.08;;;5.08;100.00
51617;BME280;37697;52.588;13.394;2023-12-20T12:44:29;99927.11;;;4.98;100.00
51617;BME280;37697;52.588;13.394;2023-12-20T12:49:55;99912.77;;;4.90;100.00
51617;BME280;37697;52.588;13.394;2023-12-20T12:55:21;99894.03;;;4.85;100.00
51617;BME280;37697;52.588;13.394;2023-12-20T13:00:47;99885.16;;;4.83;100.00
51617;BME280;37697;52.588;13.394;2023-12-20T13:06:13;99885.09;;;4.77;100.00
51617;BME280;37697;52.588;13.394;2023-12-20T13:11:40;99897.00;;;4.74;100.00
51617;BME280;37697;52.588;13.394;2023-12-20T13:17:06;99923.18;;;4.76;100.00
51617;BME280;37697;52.588;13.394;2023-12-20T13:22:36;99937.02;;;4.73;100.00
51617;BME280;37697;52.588;13.394;2023-12-20T13:27:54;99943.16;;;4.67;100.00
51617;BME280;37697;52.588;13.394;2023-12-20T13:33:28;99939.65;;;4.63;100.00
51617;BME280;37697;52.588;13.394;2023-12-20T13:38:54;99924.09;;;4.59;100.00
51617;BME280;37697;52.588;13.394;2023-12-20T13:44:13;99925.52;;;4.55;100.00
51617;BME280;37697;52.588;13.394;2023-12-20T13:49:39;99934.76;;;4.50;100.00
51617;BME280;37697;52.588;13.394;2023-12-20T13:54:45;99946.74;;;4.43;100.00
51617;BME280;37697;52.588;13.394;2023-12-20T14:00:13;99950.12;;;4.35;100.00
51617;BME280;37697;52.588;13.394;2023-12-20T14:05:39;99966.52;;;4.28;100.00
51617;BME280;37697;52.588;13.394;2023-12-20T14:11:06;99968.36;;;4.30;100.00
51617;BME280;37697;52.588;13.394;2023-12-20T14:16:24;99971.72;;;4.24;100.00
51617;BME280;37697;52.588;13.394;2023-12-20T14:21:50;99991.04;;;4.15;100.00
51617;BME280;37697;52.588;13.394;2023-12-20T14:27:16;100002.73;;;4.08;100.00
51617;BME280;37697;52.588;13.394;2023-12-20T14:32:41;100012.88;;;4.07;100.00
51617;BME280;37697;52.588;13.394;2023-12-20T14:38:07;100015.93;;;4.06;100.00
51617;BME280;37697;52.588;13.394;2023-12-20T14:43:33;100012.34;;;4.04;100.00
51617;BME280;37697;52.588;13.394;2023-12-20T14:48:52;100020.96;;;3.98;100.00
51617;BME280;37697;52.588;13.394;2023-12-20T14:54:07;100020.27;;;3.93;100.00
51617;BME280;37697;52.588;13.394;2023-12-20T14:59:22;100025.73;;;3.92;100.00
51617;BME280;37697;52.588;13.394;2023-12-20T15:04:48;100033.19;;;3.91;100.00
51617;BME280;37697;52.588;13.394;2023-12-20T15:10:13;100039.24;;;3.91;100.00
51617;BME280;37697;52.588;13.394;2023-12-20T15:15:39;100038.97;;;3.91;100.00
51617;BME280;37697;52.588;13.394;2023-12-20T15:20:51;100036.85;;;3.91;100.00
51617;BME280;37697;52.588;13.394;2023-12-20T15:26:17;100035.91;;;3.91;100.00
51617;BME280;37697;52.588;13.394;2023-12-20T15:31:45;100035.05;;;3.89;100.00
51617;BME280;37697;52.588;13.394;2023-12-20T15:37:11;100039.48;;;3.82;100.00
51617;BME280;37697;52.588;13.394;2023-12-20T15:42:37;100052.89;;;3.73;100.00
51617;BME280;37697;52.588;13.394;2023-12-20T15:48:04;100056.11;;;3.63;100.00
51617;BME280;37697;52.588;13.394;2023-12-20T15:53:23;100057.31;;;3.54;100.00
51617;BME280;37697;52.588;13.394;2023-12-20T15:58:49;100054.42;;;3.47;100.00
51617;BME280;37697;52.588;13.394;2023-12-20T16:04:05;100059.23;;;3.43;100.00
51617;BME280;37697;52.588;13.394;2023-12-20T16:09:30;100059.98;;;3.39;100.00
51617;BME280;37697;52.588;13.394;2023-12-20T16:14:56;100064.17;;;3.36;100.00
51617;BME280;37697;52.588;13.394;2023-12-20T16:20:22;100068.70;;;3.33;100.00
51617;BME280;37697;52.588;13.394;2023-12-20T16:25:48;100072.07;;;3.32;100.00
51617;BME280;37697;52.588;13.394;2023-12-20T16:31:14;100078.27;;;3.30;100.00
51617;BME280;37697;52.588;13.394;2023-12-20T16:36:51;100082.08;;;3.26;100.00
51617;BME280;37697;52.588;13.394;2023-12-20T16:42:17;100088.88;;;3.23;100.00
51617;BME280;37697;52.588;13.394;2023-12-20T16:47:43;100094.27;;;3.20;100.00
51617;BME280;37697;52.588;13.394;2023-12-20T16:53:09;100097.04;;;3.18;100.00
51617;BME280;37697;52.588;13.394;2023-12-20T16:58:35;100095.06;;;3.17;100.00
51617;BME280;37697;52.588;13.394;2023-12-20T17:04:00;100097.80;;;3.17;100.00
51617;BME280;37697;52.588;13.394;2023-12-20T17:09:26;100098.83;;;3.16;100.00
51617;BME280;37697;52.588;13.394;2023-12-20T17:14:52;100095.61;;;3.12;100.00
51617;BME280;37697;52.588;13.394;2023-12-20T17:20:18;100099.36;;;3.12;100.00
51617;BME280;37697;52.588;13.394;2023-12-20T17:25:44;100096.70;;;3.13;100.00
51617;BME280;37697;52.588;13.394;2023-12-20T17:31:10;100090.77;;;3.12;100.00
51617;BME280;37697;52.588;13.394;2023-12-20T17:36:36;100092.63;;;3.13;100.00
51617;BME280;37697;52.588;13.394;2023-12-20T17:42:02;100095.83;;;3.13;100.00
51617;BME280;37697;52.588;13.394;2023-12-20T17:47:28;100091.15;;;3.11;100.00
51617;BME280;37697;52.588;13.394;2023-12-20T17:52:54;100083.42;;;3.11;100.00
51617;BME280;37697;52.588;13.394;2023-12-20T17:58:20;100079.12;;;3.12;100.00
51617;BME280;37697;52.588;13.394;2023-12-20T18:03:46;100077.83;;;3.20;100.00
51617;BME280;37697;52.588;13.394;2023-12-20T18:09:12;100081.21;;;3.30;100.00
51617;BME280;37697;52.588;13.394;2023-12-20T18:14:38;100090.80;;;3.39;100.00
51617;BME280;37697;52.588;13.394;2023-12-20T18:19:57;100093.20;;;3.47;100.00
51617;BME280;37697;52.588;13.394;2023-12-20T18:25:24;100089.65;;;3.53;100.00
51617;BME280;37697;52.588;13.394;2023-12-20T18:30:50;100091.63;;;3.56;100.00
51617;BME280;37697;52.588;13.394;2023-12-20T18:36:16;100088.17;;;3.58;100.00
51617;BME280;37697;52.588;13.394;2023-12-20T18:41:42;100083.90;;;3.60;100.00
51617;BME280;37697;52.588;13.394;2023-12-20T18:47:08;100087.86;;;3.60;100.00
51617;BME280;37697;52.588;13.394;2023-12-20T18:52:34;100089.67;;;3.63;100.00
51617;BME280;37697;52.588;13.394;2023-12-20T18:58:00;100095.77;;;3.63;100.00
51617;BME280;37697;52.588;13.394;2023-12-20T19:03:26;100081.98;;;3.64;100.00
51617;BME280;37697;52.588;13.394;2023-12-20T19:08:52;100077.84;;;3.66;100.00
51617;BME280;37697;52.588;13.394;2023-12-20T19:14:18;100079.63;;;3.68;100.00
51617;BME280;37697;52.588;13.394;2023-12-20T19:19:44;100066.23;;;3.68;100.00
51617;BME280;37697;52.588;13.394;2023-12-20T19:25:10;100061.88;;;3.66;100.00
51617;BME280;37697;52.588;13.394;2023-12-20T19:30:36;100060.30;;;3.64;100.00
51617;BME280;37697;52.588;13.394;2023-12-20T19:36:02;100063.47;;;3.62;100.00
51617;BME280;37697;52.588;13.394;2023-12-20T19:41:28;100053.61;;;3.63;100.00
51617;BME280;37697;52.588;13.394;2023-12-20T19:46:54;100053.49;;;3.65;100.00
51617;BME280;37697;52.588;13.394;2023-12-20T19:52:20;100047.08;;;3.67;100.00
51617;BME280;37697;52.588;13.394;2023-12-20T19:57:46;100037.27;;;3.69;100.00
51617;BME280;37697;52.588;13.394;2023-12-20T20:03:11;100040.15;;;3.71;100.00
51617;BME280;37697;52.588;13.394;2023-12-20T20:08:37;100025.77;;;3.73;100.00
51617;BME280;37697;52.588;13.394;2023-12-20T20:14:03;100026.30;;;3.75;100.00
51617;BME280;37697;52.588;13.394;2023-12-20T20:19:29;100032.13;;;3.75;100.00
51617;BME280;37697;52.588;13.394;2023-12-20T20:24:55;100019.77;;;3.74;100.00
51617;BME280;37697;52.588;13.394;2023-12-20T20:30:21;100017.15;;;3.73;100.00
51617;BME280;37697;52.588;13.394;2023-12-20T20:35:48;100011.05;;;3.71;100.00
51617;BME280;37697;52.588;13.394;2023-12-20T20:41:13;100003.98;;;3.69;100.00
51617;BME280;37697;52.588;13.394;2023-12-20T20:46:40;100002.55;;;3.69;100.00
51617;BME280;37697;52.588;13.394;2023-12-20T20:51:56;99994.52;;;3.69;100.00
51617;BME280;37697;52.588;13.394;2023-12-20T20:57:22;99994.34;;;3.69;100.00
51617;BME280;37697;52.588;13.394;2023-12-20T21:02:48;99983.56;;;3.67;100.00
51617;BME280;37697;52.588;13.394;2023-12-20T21:08:14;99973.42;;;3.65;100.00
51617;BME280;37697;52.588;13.394;2023-12-20T21:13:40;99976.60;;;3.63;100.00
51617;BME280;37697;52.588;13.394;2023-12-20T21:19:06;99968.59;;;3.60;100.00
51617;BME280;37697;52.588;13.394;2023-12-20T21:24:31;99961.52;;;3.58;100.00
51617;BME280;37697;52.588;13.394;2023-12-20T21:29:57;99951.34;;;3.56;100.00
51617;BME280;37697;52.588;13.394;2023-12-20T21:35:23;99939.20;;;3.52;100.00
51617;BME280;37697;52.588;13.394;2023-12-20T21:40:50;99933.39;;;3.44;100.00
51617;BME280;37697;52.588;13.394;2023-12-20T21:46:25;99927.90;;;3.39;100.00
51617;BME280;37697;52.588;13.394;2023-12-20T21:51:51;99920.03;;;3.34;100.00
51617;BME280;37697;52.588;13.394;2023-12-20T21:57:17;99904.42;;;3.29;100.00
51617;BME280;37697;52.588;13.394;2023-12-20T22:02:42;99894.52;;;3.26;100.00
51617;BME280;37697;52.588;13.394;2023-12-20T22:08:09;99877.98;;;3.23;100.00
51617;BME280;37697;52.588;13.394;2023-12-20T22:13:34;99862.95;;;3.20;100.00
51617;BME280;37697;52.588;13.394;2023-12-20T22:19:01;99854.68;;;3.21;100.00
51617;BME280;37697;52.588;13.394;2023-12-20T22:24:27;99842.77;;;3.20;100.00
51617;BME280;37697;52.588;13.394;2023-12-20T22:29:52;99830.02;;;3.21;100.00
51617;BME280;37697;52.588;13.394;2023-12-20T22:35:18;99827.92;;;3.17;100.00
51617;BME280;37697;52.588;13.394;2023-12-20T22:40:44;99820.73;;;3.15;100.00
51617;BME280;37697;52.588;13.394;2023-12-20T22:46:10;99812.33;;;3.09;100.00
51617;BME280;37697;52.588;13.394;2023-12-20T22:51:36;99798.57;;;3.05;100.00
51617;BME280;37697;52.588;13.394;2023-12-20T22:57:00;99787.74;;;3.02;100.00
51617;BME280;37697;52.588;13.394;2023-12-20T23:02:26;99779.76;;;2.99;100.00
51617;BME280;37697;52.588;13.394;2023-12-20T23:07:52;99774.48;;;2.95;100.00
51617;BME280;37697;52.588;13.394;2023-12-20T23:13:19;99752.95;;;2.93;100.00
51617;BME280;37697;52.588;13.394;2023-12-20T23:18:44;99733.65;;;2.91;100.00
51617;BME280;37697;52.588;13.394;2023-12-20T23:24:10;99721.56;;;2.93;100.00
51617;BME280;37697;52.588;13.394;2023-12-20T23:29:36;99700.85;;;2.93;100.00
51617;BME280;37697;52.588;13.394;2023-12-20T23:35:01;99674.89;;;2.93;100.00
51617;BME280;37697;52.588;13.394;2023-12-20T23:40:27;99646.02;;;2.93;100.00
51617;BME280;37697;52.588;13.394;2023-12-20T23:45:52;99614.02;;;2.95;100.00
51617;BME280;37697;52.588;13.394;2023-12-20T23:51:18;99584.56;;;2.96;100.00
51617;BME280;37697;52.588;13.394;2023-12-20T23:56:45;99559.48;;;2.98;100.00
